SWA1031 KSMF-KLAX
Flight info
| Callsign | SWA1031 |
|---|---|
| Flight time | 1h 1m |
| Altitude | 33000 |
| Route | FTHIL3 FRA DCT REBRG IRNMN2 |
| Aircraft | B738/M-VGDW/C |
Departure
| Time | 2026-04-20 21:56 |
|---|---|
| Airport | Sacramento International Airport (KSMF) |
Arrival
| Time | 2026-04-20 22:57 |
|---|---|
| Airport | Los Angeles International Airport (KLAX) |
| Time | Latitude | Longitude | Altitude | Speed | Heading |
|---|---|---|---|---|---|
| 2026-04-20 21:21 | 38.69514 | -121.59399 | 32 ft | 0 kts | 24° |
| 2026-04-20 21:38 | 38.69489 | -121.59413 | 31 ft | 5 kts | 21° |
| 2026-04-20 21:38 | 38.69465 | -121.59422 | 31 ft | 3 kts | 2° |
| 2026-04-20 21:38 | 38.69447 | -121.59421 | 31 ft | 2 kts | 353° |
| 2026-04-20 21:39 | 38.69436 | -121.59419 | 31 ft | 2 kts | 352° |
| 2026-04-20 21:39 | 38.69429 | -121.59418 | 31 ft | 0 kts | 351° |
| 2026-04-20 21:45 | 38.69434 | -121.59422 | 30 ft | 3 kts | 328° |
| 2026-04-20 21:45 | 38.69440 | -121.59461 | 32 ft | 8 kts | 225° |
| 2026-04-20 21:45 | 38.69386 | -121.59450 | 31 ft | 10 kts | 205° |
| 2026-04-20 21:45 | 38.69315 | -121.59529 | 32 ft | 15 kts | 221° |
| 2026-04-20 21:46 | 38.69236 | -121.59612 | 31 ft | 14 kts | 227° |
| 2026-04-20 21:46 | 38.69213 | -121.59753 | 31 ft | 19 kts | 272° |
| 2026-04-20 21:46 | 38.69260 | -121.59871 | 32 ft | 16 kts | 4° |
| 2026-04-20 21:46 | 38.69367 | -121.59870 | 31 ft | 13 kts | 0° |
| 2026-04-20 21:47 | 38.69449 | -121.59869 | 31 ft | 11 kts | 1° |
| 2026-04-20 21:47 | 38.69524 | -121.59867 | 31 ft | 11 kts | 0° |
| 2026-04-20 21:47 | 38.69572 | -121.59866 | 32 ft | 10 kts | 1° |
| 2026-04-20 21:47 | 38.69668 | -121.59865 | 32 ft | 10 kts | 1° |
| 2026-04-20 21:48 | 38.69713 | -121.59864 | 32 ft | 10 kts | 0° |
| 2026-04-20 21:48 | 38.69782 | -121.59863 | 31 ft | 10 kts | 1° |
| 2026-04-20 21:48 | 38.69848 | -121.59861 | 31 ft | 9 kts | 1° |
| 2026-04-20 21:48 | 38.69916 | -121.59861 | 32 ft | 11 kts | 360° |
| 2026-04-20 21:49 | 38.69994 | -121.59861 | 33 ft | 11 kts | 360° |
| 2026-04-20 21:49 | 38.70070 | -121.59861 | 33 ft | 11 kts | 359° |
| 2026-04-20 21:49 | 38.70143 | -121.59862 | 33 ft | 10 kts | 0° |
| 2026-04-20 21:49 | 38.70217 | -121.59859 | 32 ft | 11 kts | 2° |
| 2026-04-20 21:50 | 38.70296 | -121.59856 | 33 ft | 12 kts | 2° |
| 2026-04-20 21:50 | 38.70379 | -121.59853 | 33 ft | 12 kts | 1° |
| 2026-04-20 21:50 | 38.70476 | -121.59850 | 33 ft | 15 kts | 1° |
| 2026-04-20 21:50 | 38.70584 | -121.59849 | 32 ft | 15 kts | 0° |
| 2026-04-20 21:51 | 38.70688 | -121.59854 | 33 ft | 15 kts | 342° |
| 2026-04-20 21:51 | 38.70720 | -121.59957 | 32 ft | 1 kts | 272° |
| 2026-04-20 21:53 | 38.70720 | -121.59965 | 32 ft | 3 kts | 273° |
| 2026-04-20 21:53 | 38.70723 | -121.60039 | 31 ft | 12 kts | 271° |
| 2026-04-20 21:54 | 38.70697 | -121.60111 | 31 ft | 10 kts | 185° |
| 2026-04-20 21:54 | 38.70688 | -121.60111 | 32 ft | 0 kts | 178° |
| 2026-04-20 21:55 | 38.70659 | -121.60110 | 32 ft | 27 kts | 180° |
| 2026-04-20 21:56 | 38.70140 | -121.60121 | 37 ft | 119 kts | 180° |
| 2026-04-20 21:56 | 38.69080 | -121.60153 | 369 ft | 163 kts | 184° |
| 2026-04-20 21:56 | 38.67953 | -121.60216 | 1532 ft | 164 kts | 182° |
| 2026-04-20 21:56 | 38.66781 | -121.60184 | 2535 ft | 177 kts | 177° |
| 2026-04-20 21:57 | 38.65487 | -121.60125 | 3048 ft | 199 kts | 179° |
| 2026-04-20 21:57 | 38.63991 | -121.60114 | 3307 ft | 229 kts | 180° |
| 2026-04-20 21:57 | 38.62352 | -121.60133 | 4097 ft | 238 kts | 181° |
| 2026-04-20 21:57 | 38.60691 | -121.60155 | 5162 ft | 239 kts | 181° |
| 2026-04-20 21:58 | 38.59022 | -121.60098 | 6112 ft | 245 kts | 169° |
| 2026-04-20 21:58 | 38.57543 | -121.58996 | 6986 ft | 258 kts | 134° |
| 2026-04-20 21:58 | 38.56587 | -121.57053 | 7961 ft | 263 kts | 124° |
| 2026-04-20 21:58 | 38.55695 | -121.54984 | 8845 ft | 268 kts | 124° |
| 2026-04-20 21:59 | 38.54799 | -121.52881 | 9790 ft | 271 kts | 124° |
| 2026-04-20 21:59 | 38.53890 | -121.50749 | 10530 ft | 280 kts | 125° |
| 2026-04-20 21:59 | 38.52901 | -121.48461 | 10756 ft | 308 kts | 125° |
| 2026-04-20 21:59 | 38.51818 | -121.45969 | 10953 ft | 334 kts | 124° |
| 2026-04-20 22:00 | 38.50656 | -121.43291 | 11327 ft | 351 kts | 124° |
| 2026-04-20 22:00 | 38.49464 | -121.40539 | 11967 ft | 358 kts | 124° |
| 2026-04-20 22:00 | 38.48251 | -121.37735 | 12746 ft | 362 kts | 124° |
| 2026-04-20 22:00 | 38.47025 | -121.34908 | 13486 ft | 366 kts | 125° |
| 2026-04-20 22:01 | 38.45784 | -121.32055 | 14153 ft | 371 kts | 125° |
| 2026-04-20 22:01 | 38.44518 | -121.29156 | 14770 ft | 376 kts | 125° |
| 2026-04-20 22:01 | 38.43233 | -121.26215 | 15435 ft | 380 kts | 126° |
| 2026-04-20 22:01 | 38.41936 | -121.23254 | 16094 ft | 384 kts | 126° |
| 2026-04-20 22:02 | 38.40623 | -121.20260 | 16733 ft | 389 kts | 126° |
| 2026-04-20 22:02 | 38.39294 | -121.17231 | 17376 ft | 394 kts | 126° |
| 2026-04-20 22:02 | 38.37961 | -121.14198 | 17983 ft | 399 kts | 126° |
| 2026-04-20 22:02 | 38.36597 | -121.11099 | 18537 ft | 403 kts | 127° |
| 2026-04-20 22:03 | 38.35218 | -121.07965 | 19093 ft | 407 kts | 127° |
| 2026-04-20 22:03 | 38.33828 | -121.04809 | 19643 ft | 410 kts | 127° |
| 2026-04-20 22:03 | 38.32423 | -121.01624 | 20188 ft | 414 kts | 127° |
| 2026-04-20 22:03 | 38.31006 | -120.98415 | 20687 ft | 418 kts | 127° |
| 2026-04-20 22:04 | 38.29570 | -120.95165 | 21186 ft | 421 kts | 127° |
| 2026-04-20 22:04 | 38.28126 | -120.91900 | 21679 ft | 425 kts | 127° |
| 2026-04-20 22:04 | 38.26666 | -120.88604 | 22140 ft | 428 kts | 127° |
| 2026-04-20 22:04 | 38.25217 | -120.85334 | 22590 ft | 432 kts | 127° |
| 2026-04-20 22:05 | 38.23735 | -120.81998 | 23003 ft | 435 kts | 128° |
| 2026-04-20 22:05 | 38.22239 | -120.78630 | 23446 ft | 438 kts | 128° |
| 2026-04-20 22:05 | 38.20729 | -120.75234 | 23810 ft | 442 kts | 127° |
| 2026-04-20 22:05 | 38.19209 | -120.71818 | 24188 ft | 444 kts | 127° |
| 2026-04-20 22:06 | 38.17683 | -120.68390 | 24574 ft | 446 kts | 127° |
| 2026-04-20 22:06 | 38.16148 | -120.64947 | 24924 ft | 449 kts | 127° |
| 2026-04-20 22:06 | 38.14605 | -120.61489 | 25269 ft | 451 kts | 127° |
| 2026-04-20 22:06 | 38.13051 | -120.58012 | 25642 ft | 453 kts | 127° |
| 2026-04-20 22:07 | 38.11493 | -120.54530 | 25990 ft | 455 kts | 127° |
| 2026-04-20 22:07 | 38.09925 | -120.51028 | 26306 ft | 458 kts | 126° |
| 2026-04-20 22:07 | 38.08345 | -120.47503 | 26627 ft | 460 kts | 127° |
| 2026-04-20 22:07 | 38.06753 | -120.43959 | 26942 ft | 462 kts | 126° |
| 2026-04-20 22:08 | 38.05121 | -120.40452 | 27243 ft | 462 kts | 129° |
| 2026-04-20 22:08 | 38.03322 | -120.37130 | 27542 ft | 461 kts | 132° |
| 2026-04-20 22:08 | 38.01414 | -120.33844 | 27824 ft | 462 kts | 133° |
| 2026-04-20 22:08 | 37.99507 | -120.30559 | 28147 ft | 464 kts | 132° |
| 2026-04-20 22:09 | 37.97628 | -120.27239 | 28597 ft | 462 kts | 131° |
| 2026-04-20 22:09 | 37.95779 | -120.23929 | 29074 ft | 460 kts | 132° |
| 2026-04-20 22:09 | 37.93643 | -120.20973 | 29454 ft | 449 kts | 147° |
| 2026-04-20 22:09 | 37.91052 | -120.18830 | 29898 ft | 442 kts | 154° |
| 2026-04-20 22:10 | 37.88390 | -120.16878 | 30348 ft | 441 kts | 154° |
| 2026-04-20 22:10 | 37.85728 | -120.14953 | 30806 ft | 438 kts | 154° |
| 2026-04-20 22:10 | 37.83081 | -120.13030 | 31228 ft | 437 kts | 154° |
| 2026-04-20 22:10 | 37.80485 | -120.11131 | 31604 ft | 436 kts | 154° |
| 2026-04-20 22:11 | 37.77861 | -120.09197 | 31993 ft | 435 kts | 154° |
| 2026-04-20 22:11 | 37.75245 | -120.07260 | 32328 ft | 435 kts | 154° |
| 2026-04-20 22:11 | 37.72633 | -120.05321 | 32670 ft | 435 kts | 153° |
| 2026-04-20 22:11 | 37.70023 | -120.03382 | 32932 ft | 434 kts | 153° |
| 2026-04-20 22:12 | 37.67420 | -120.01449 | 32924 ft | 434 kts | 153° |
| 2026-04-20 22:12 | 37.62215 | -119.97587 | 32924 ft | 434 kts | 153° |
| 2026-04-20 22:13 | 37.57043 | -119.93758 | 32930 ft | 434 kts | 153° |
| 2026-04-20 22:13 | 37.51835 | -119.89908 | 32936 ft | 434 kts | 153° |
| 2026-04-20 22:14 | 37.46618 | -119.86058 | 32939 ft | 434 kts | 153° |
| 2026-04-20 22:14 | 37.41393 | -119.82210 | 32951 ft | 435 kts | 153° |
| 2026-04-20 22:15 | 37.36159 | -119.78360 | 32952 ft | 436 kts | 153° |
| 2026-04-20 22:15 | 37.30916 | -119.74509 | 32952 ft | 436 kts | 153° |
| 2026-04-20 22:16 | 37.25660 | -119.70656 | 32957 ft | 437 kts | 153° |
| 2026-04-20 22:16 | 37.20432 | -119.66829 | 32954 ft | 438 kts | 153° |
| 2026-04-20 22:17 | 37.14925 | -119.63747 | 32962 ft | 431 kts | 170° |
| 2026-04-20 22:17 | 37.08993 | -119.63201 | 32957 ft | 427 kts | 186° |
| 2026-04-20 22:18 | 37.03071 | -119.63878 | 32944 ft | 428 kts | 187° |
| 2026-04-20 22:18 | 36.97170 | -119.64586 | 32952 ft | 428 kts | 186° |
| 2026-04-20 22:19 | 36.91222 | -119.65260 | 32963 ft | 429 kts | 186° |
| 2026-04-20 22:19 | 36.85258 | -119.65910 | 32961 ft | 430 kts | 186° |
| 2026-04-20 22:20 | 36.79331 | -119.66548 | 32962 ft | 430 kts | 186° |
| 2026-04-20 22:20 | 36.73352 | -119.67189 | 32962 ft | 430 kts | 186° |
| 2026-04-20 22:21 | 36.67384 | -119.67829 | 32964 ft | 430 kts | 186° |
| 2026-04-20 22:21 | 36.61410 | -119.68469 | 32961 ft | 430 kts | 186° |
| 2026-04-20 22:22 | 36.55440 | -119.69108 | 32959 ft | 431 kts | 186° |
| 2026-04-20 22:22 | 36.49467 | -119.69747 | 32960 ft | 431 kts | 186° |
| 2026-04-20 22:23 | 36.43531 | -119.70380 | 32956 ft | 431 kts | 186° |
| 2026-04-20 22:23 | 36.37556 | -119.71016 | 32952 ft | 426 kts | 186° |
| 2026-04-20 22:23 | 36.34660 | -119.71322 | 32936 ft | 411 kts | 186° |
| 2026-04-20 22:24 | 36.31807 | -119.71625 | 32961 ft | 415 kts | 186° |
| 2026-04-20 22:24 | 36.25956 | -119.72249 | 32975 ft | 428 kts | 186° |
| 2026-04-20 22:25 | 36.19944 | -119.72889 | 32950 ft | 436 kts | 186° |
| 2026-04-20 22:25 | 36.13911 | -119.73526 | 32947 ft | 435 kts | 186° |
| 2026-04-20 22:26 | 36.07874 | -119.74163 | 32946 ft | 435 kts | 186° |
| 2026-04-20 22:26 | 36.01843 | -119.74799 | 32951 ft | 434 kts | 187° |
| 2026-04-20 22:27 | 35.92810 | -119.75751 | 32951 ft | 434 kts | 187° |
| 2026-04-20 22:27 | 35.86780 | -119.76385 | 32953 ft | 434 kts | 187° |
| 2026-04-20 22:28 | 35.80753 | -119.77018 | 32956 ft | 435 kts | 187° |
| 2026-04-20 22:28 | 35.74745 | -119.77647 | 32958 ft | 435 kts | 187° |
| 2026-04-20 22:29 | 35.68705 | -119.78280 | 32958 ft | 436 kts | 187° |
| 2026-04-20 22:29 | 35.62656 | -119.78912 | 32959 ft | 437 kts | 187° |
| 2026-04-20 22:30 | 35.56589 | -119.79545 | 32963 ft | 438 kts | 187° |
| 2026-04-20 22:30 | 35.50508 | -119.80178 | 32960 ft | 438 kts | 187° |
| 2026-04-20 22:31 | 35.44421 | -119.80812 | 32964 ft | 439 kts | 187° |
| 2026-04-20 22:31 | 35.39355 | -119.81338 | 32978 ft | 440 kts | 187° |
| 2026-04-20 22:32 | 35.33248 | -119.81971 | 32968 ft | 440 kts | 186° |
| 2026-04-20 22:32 | 35.29190 | -119.81546 | 32991 ft | 447 kts | 167° |
| 2026-04-20 22:32 | 35.27204 | -119.80670 | 32958 ft | 452 kts | 157° |
| 2026-04-20 22:33 | 35.22002 | -119.76226 | 32963 ft | 459 kts | 145° |
| 2026-04-20 22:33 | 35.16986 | -119.71387 | 32959 ft | 460 kts | 145° |
| 2026-04-20 22:34 | 35.11925 | -119.66586 | 32956 ft | 460 kts | 146° |
| 2026-04-20 22:34 | 35.09398 | -119.64223 | 32369 ft | 467 kts | 146° |
| 2026-04-20 22:34 | 35.06820 | -119.61825 | 31692 ft | 464 kts | 146° |
| 2026-04-20 22:35 | 35.04224 | -119.59413 | 30918 ft | 465 kts | 146° |
| 2026-04-20 22:35 | 35.01678 | -119.57050 | 30141 ft | 465 kts | 146° |
| 2026-04-20 22:35 | 34.99102 | -119.54660 | 29174 ft | 467 kts | 146° |
| 2026-04-20 22:35 | 34.96516 | -119.52260 | 28322 ft | 466 kts | 146° |
| 2026-04-20 22:36 | 34.93946 | -119.49875 | 27694 ft | 460 kts | 146° |
| 2026-04-20 22:36 | 34.91413 | -119.47528 | 27040 ft | 455 kts | 146° |
| 2026-04-20 22:36 | 34.88887 | -119.45230 | 26430 ft | 449 kts | 147° |
| 2026-04-20 22:36 | 34.86381 | -119.42992 | 25810 ft | 444 kts | 147° |
| 2026-04-20 22:37 | 34.83895 | -119.40782 | 25204 ft | 440 kts | 147° |
| 2026-04-20 22:37 | 34.81434 | -119.38593 | 24633 ft | 435 kts | 147° |
| 2026-04-20 22:37 | 34.79038 | -119.36453 | 24497 ft | 420 kts | 147° |
| 2026-04-20 22:37 | 34.76719 | -119.34380 | 24309 ft | 407 kts | 147° |
| 2026-04-20 22:38 | 34.74468 | -119.32372 | 24065 ft | 397 kts | 147° |
| 2026-04-20 22:38 | 34.72234 | -119.30412 | 23608 ft | 394 kts | 148° |
| 2026-04-20 22:38 | 34.70042 | -119.28504 | 23088 ft | 391 kts | 148° |
| 2026-04-20 22:38 | 34.67842 | -119.26588 | 22610 ft | 387 kts | 148° |
| 2026-04-20 22:39 | 34.65675 | -119.24698 | 22136 ft | 382 kts | 148° |
| 2026-04-20 22:39 | 34.63517 | -119.22824 | 21708 ft | 377 kts | 148° |
| 2026-04-20 22:39 | 34.61385 | -119.20986 | 21224 ft | 375 kts | 148° |
| 2026-04-20 22:39 | 34.59265 | -119.19162 | 20779 ft | 372 kts | 148° |
| 2026-04-20 22:40 | 34.57165 | -119.17354 | 20321 ft | 370 kts | 148° |
| 2026-04-20 22:40 | 34.55073 | -119.15538 | 19874 ft | 367 kts | 148° |
| 2026-04-20 22:40 | 34.53020 | -119.13719 | 19450 ft | 364 kts | 148° |
| 2026-04-20 22:40 | 34.50976 | -119.11900 | 18995 ft | 362 kts | 147° |
| 2026-04-20 22:41 | 34.48952 | -119.10102 | 18580 ft | 360 kts | 147° |
| 2026-04-20 22:41 | 34.46927 | -119.08309 | 18073 ft | 360 kts | 147° |
| 2026-04-20 22:41 | 34.44935 | -119.06548 | 17606 ft | 358 kts | 147° |
| 2026-04-20 22:41 | 34.42926 | -119.04784 | 17138 ft | 356 kts | 148° |
| 2026-04-20 22:42 | 34.40920 | -119.03048 | 16672 ft | 353 kts | 148° |
| 2026-04-20 22:42 | 34.38923 | -119.01323 | 16207 ft | 351 kts | 148° |
| 2026-04-20 22:42 | 34.36943 | -118.99611 | 15751 ft | 349 kts | 147° |
| 2026-04-20 22:42 | 34.34970 | -118.97905 | 15302 ft | 346 kts | 147° |
| 2026-04-20 22:43 | 34.33029 | -118.96198 | 14880 ft | 344 kts | 146° |
| 2026-04-20 22:43 | 34.31125 | -118.94465 | 14480 ft | 341 kts | 146° |
| 2026-04-20 22:43 | 34.29235 | -118.92737 | 14032 ft | 339 kts | 146° |
| 2026-04-20 22:43 | 34.27354 | -118.91025 | 13569 ft | 338 kts | 146° |
| 2026-04-20 22:44 | 34.25483 | -118.89327 | 13095 ft | 335 kts | 146° |
| 2026-04-20 22:44 | 34.23625 | -118.87626 | 12646 ft | 333 kts | 145° |
| 2026-04-20 22:44 | 34.21801 | -118.85946 | 12395 ft | 325 kts | 145° |
| 2026-04-20 22:44 | 34.20032 | -118.84317 | 12238 ft | 314 kts | 145° |
| 2026-04-20 22:45 | 34.18322 | -118.82745 | 12111 ft | 304 kts | 145° |
| 2026-04-20 22:45 | 34.16668 | -118.81226 | 11962 ft | 295 kts | 144° |
| 2026-04-20 22:45 | 34.15118 | -118.79663 | 11657 ft | 293 kts | 141° |
| 2026-04-20 22:45 | 34.13615 | -118.78016 | 11370 ft | 290 kts | 140° |
| 2026-04-20 22:46 | 34.12138 | -118.76376 | 11100 ft | 287 kts | 140° |
| 2026-04-20 22:46 | 34.10666 | -118.74750 | 10817 ft | 285 kts | 140° |
| 2026-04-20 22:46 | 34.09203 | -118.73147 | 10524 ft | 284 kts | 140° |
| 2026-04-20 22:46 | 34.07737 | -118.71549 | 10227 ft | 282 kts | 140° |
| 2026-04-20 22:47 | 34.06289 | -118.69976 | 9991 ft | 278 kts | 140° |
| 2026-04-20 22:47 | 34.04850 | -118.68414 | 9699 ft | 276 kts | 140° |
| 2026-04-20 22:47 | 34.03516 | -118.66764 | 9367 ft | 278 kts | 126° |
| 2026-04-20 22:47 | 34.02769 | -118.64612 | 9090 ft | 280 kts | 104° |
| 2026-04-20 22:48 | 34.02523 | -118.62287 | 8822 ft | 278 kts | 98° |
| 2026-04-20 22:48 | 34.02331 | -118.59972 | 8534 ft | 276 kts | 98° |
| 2026-04-20 22:48 | 34.02131 | -118.57680 | 8252 ft | 274 kts | 98° |
| 2026-04-20 22:48 | 34.01925 | -118.55409 | 7988 ft | 271 kts | 99° |
| 2026-04-20 22:49 | 34.01719 | -118.53165 | 7759 ft | 267 kts | 99° |
| 2026-04-20 22:49 | 34.01515 | -118.50979 | 7535 ft | 264 kts | 99° |
| 2026-04-20 22:49 | 34.01310 | -118.48803 | 7335 ft | 261 kts | 99° |
| 2026-04-20 22:49 | 34.01105 | -118.46627 | 7096 ft | 256 kts | 98° |
| 2026-04-20 22:50 | 34.01143 | -118.44518 | 6871 ft | 251 kts | 83° |
| 2026-04-20 22:50 | 34.01497 | -118.42474 | 6679 ft | 248 kts | 80° |
| 2026-04-20 22:50 | 34.01879 | -118.40453 | 6477 ft | 246 kts | 80° |
| 2026-04-20 22:50 | 34.02245 | -118.38454 | 6264 ft | 243 kts | 81° |
| 2026-04-20 22:51 | 34.02598 | -118.36461 | 6018 ft | 243 kts | 82° |
| 2026-04-20 22:51 | 34.02893 | -118.34464 | 5713 ft | 243 kts | 85° |
| 2026-04-20 22:51 | 34.03098 | -118.32434 | 5421 ft | 243 kts | 86° |
| 2026-04-20 22:51 | 34.03294 | -118.30402 | 5130 ft | 244 kts | 85° |
| 2026-04-20 22:52 | 34.03465 | -118.28366 | 4800 ft | 245 kts | 88° |
| 2026-04-20 22:52 | 34.03652 | -118.26307 | 4426 ft | 248 kts | 89° |
| 2026-04-20 22:52 | 34.03374 | -118.24283 | 4037 ft | 244 kts | 118° |
| 2026-04-20 22:52 | 34.02301 | -118.22758 | 3659 ft | 240 kts | 148° |
| 2026-04-20 22:53 | 34.00754 | -118.22138 | 3288 ft | 236 kts | 178° |
| 2026-04-20 22:53 | 33.99194 | -118.22581 | 2926 ft | 235 kts | 209° |
| 2026-04-20 22:53 | 33.98005 | -118.23894 | 2649 ft | 229 kts | 230° |
| 2026-04-20 22:53 | 33.97088 | -118.25361 | 2580 ft | 211 kts | 240° |
| 2026-04-20 22:54 | 33.96675 | -118.27006 | 2388 ft | 199 kts | 256° |
| 2026-04-20 22:54 | 33.96413 | -118.28609 | 2119 ft | 190 kts | 259° |
| 2026-04-20 22:54 | 33.96239 | -118.30140 | 1858 ft | 177 kts | 261° |
| 2026-04-20 22:54 | 33.96099 | -118.31516 | 1682 ft | 155 kts | 261° |
| 2026-04-20 22:55 | 33.95973 | -118.32750 | 1469 ft | 144 kts | 261° |
| 2026-04-20 22:55 | 33.95848 | -118.33950 | 1252 ft | 145 kts | 261° |
| 2026-04-20 22:55 | 33.95727 | -118.35137 | 1049 ft | 138 kts | 263° |
| 2026-04-20 22:55 | 33.95610 | -118.36284 | 810 ft | 135 kts | 262° |
| 2026-04-20 22:56 | 33.95501 | -118.37371 | 646 ft | 133 kts | 262° |
| 2026-04-20 22:56 | 33.95370 | -118.38485 | 426 ft | 132 kts | 262° |
| 2026-04-20 22:56 | 33.95272 | -118.39571 | 229 ft | 129 kts | 263° |
| 2026-04-20 22:56 | 33.95169 | -118.40635 | 132 ft | 125 kts | 262° |
| 2026-04-20 22:57 | 33.95070 | -118.41553 | 125 ft | 90 kts | 263° |
| 2026-04-20 22:57 | 33.95013 | -118.42122 | 124 ft | 60 kts | 263° |
| 2026-04-20 22:57 | 33.94930 | -118.42555 | 123 ft | 45 kts | 239° |
| 2026-04-20 22:57 | 33.94857 | -118.42674 | 123 ft | 0 kts | 228° |
| 2026-04-20 22:58 | 33.94834 | -118.42703 | 124 ft | 12 kts | 226° |
| 2026-04-20 22:58 | 33.94747 | -118.42768 | 121 ft | 15 kts | 195° |
| 2026-04-20 22:58 | 33.94651 | -118.42766 | 124 ft | 9 kts | 147° |
| 2026-04-20 22:58 | 33.94649 | -118.42764 | 124 ft | 0 kts | 141° |
| 2026-04-20 22:59 | 33.94642 | -118.42749 | 124 ft | 7 kts | 116° |
| 2026-04-20 22:59 | 33.94642 | -118.42639 | 125 ft | 16 kts | 83° |
| 2026-04-20 23:00 | 33.94656 | -118.42504 | 125 ft | 16 kts | 83° |
| 2026-04-20 23:00 | 33.94670 | -118.42374 | 123 ft | 15 kts | 83° |
| 2026-04-20 23:00 | 33.94682 | -118.42249 | 125 ft | 15 kts | 83° |
| 2026-04-20 23:00 | 33.94700 | -118.42074 | 125 ft | 31 kts | 84° |
| 2026-04-20 23:01 | 33.94729 | -118.41786 | 123 ft | 36 kts | 83° |
| 2026-04-20 23:01 | 33.94760 | -118.41495 | 122 ft | 34 kts | 83° |
| 2026-04-20 23:01 | 33.94800 | -118.41231 | 125 ft | 28 kts | 83° |
| 2026-04-20 23:01 | 33.94822 | -118.41003 | 125 ft | 27 kts | 82° |
| 2026-04-20 23:02 | 33.94846 | -118.40792 | 125 ft | 25 kts | 82° |
| 2026-04-20 23:02 | 33.94867 | -118.40594 | 125 ft | 23 kts | 82° |
| 2026-04-20 23:02 | 33.94886 | -118.40405 | 125 ft | 22 kts | 84° |
| 2026-04-20 23:02 | 33.94858 | -118.40293 | 125 ft | 12 kts | 146° |
| 2026-04-20 23:03 | 33.94829 | -118.40234 | 123 ft | 1 kts | 82° |
| 2026-04-20 23:03 | 33.94830 | -118.40224 | 124 ft | 2 kts | 84° |
| 2026-04-20 23:03 | 33.94819 | -118.40204 | 125 ft | 5 kts | 134° |
| 2026-04-20 23:03 | 33.94793 | -118.40179 | 125 ft | 5 kts | 141° |
| 2026-04-20 23:04 | 33.94790 | -118.40175 | 125 ft | 0 kts | 141° |